createdAt,value
2022-08-27T00:00:47.230Z,1007.47
2022-08-27T00:01:47.281Z,1007.50
2022-08-27T00:02:47.221Z,1007.54
2022-08-27T00:03:47.271Z,1007.49
2022-08-27T00:04:47.226Z,1007.53
2022-08-27T00:05:47.227Z,1007.47
2022-08-27T00:06:47.228Z,1007.47
2022-08-27T00:07:47.230Z,1007.44
2022-08-27T00:08:47.232Z,1007.41
2022-08-27T00:09:47.237Z,1007.39
2022-08-27T00:10:47.241Z,1007.36
2022-08-27T00:11:47.240Z,1007.31
2022-08-27T00:12:47.240Z,1007.34
2022-08-27T00:13:47.245Z,1007.30
2022-08-27T00:14:47.245Z,1007.31
2022-08-27T00:15:47.248Z,1007.30
2022-08-27T00:16:47.288Z,1007.29
2022-08-27T00:17:47.255Z,1007.27
2022-08-27T00:18:48.282Z,1007.27
2022-08-27T00:19:47.258Z,1007.26
2022-08-27T00:20:47.261Z,1007.22
2022-08-27T00:21:47.261Z,1007.20
2022-08-27T00:22:47.270Z,1007.21
2022-08-27T00:23:47.261Z,1007.20
2022-08-27T00:24:48.994Z,1007.22
2022-08-27T00:25:47.270Z,1007.24
2022-08-27T00:26:47.273Z,1007.26
2022-08-27T00:27:47.272Z,1007.23
2022-08-27T00:28:47.283Z,1007.25
2022-08-27T00:29:47.279Z,1007.25
2022-08-27T00:30:47.279Z,1007.24
2022-08-27T00:31:51.894Z,1007.26
2022-08-27T00:32:47.282Z,1007.31
2022-08-27T00:33:47.285Z,1007.29
2022-08-27T00:34:47.282Z,1007.29
2022-08-27T00:35:47.293Z,1007.31
2022-08-27T00:36:47.288Z,1007.31
2022-08-27T00:37:47.298Z,1007.29
2022-08-27T00:38:47.296Z,1007.26
2022-08-27T00:39:47.298Z,1007.23
2022-08-27T00:40:47.295Z,1007.25
2022-08-27T00:41:47.301Z,1007.21
2022-08-27T00:42:47.303Z,1007.20
2022-08-27T00:43:47.305Z,1007.19
2022-08-27T00:44:47.311Z,1007.19
2022-08-27T00:45:47.344Z,1007.16
2022-08-27T00:46:47.314Z,1007.11
2022-08-27T00:47:47.311Z,1007.12
2022-08-27T00:48:47.318Z,1007.10
2022-08-27T00:49:47.318Z,1007.12
2022-08-27T00:50:47.319Z,1007.13
2022-08-27T00:51:47.324Z,1007.16
2022-08-27T00:52:47.326Z,1007.17
2022-08-27T00:53:47.325Z,1007.21
2022-08-27T00:54:47.325Z,1007.22
2022-08-27T00:55:47.332Z,1007.18
2022-08-27T00:56:48.741Z,1007.18
2022-08-27T00:57:47.335Z,1007.15
2022-08-27T00:58:47.336Z,1007.17
2022-08-27T00:59:47.340Z,1007.16
2022-08-27T01:00:47.412Z,1007.14
2022-08-27T01:01:47.397Z,1007.18
2022-08-27T01:02:47.345Z,1007.18
2022-08-27T01:03:47.348Z,1007.21
2022-08-27T01:04:47.345Z,1007.21
2022-08-27T01:05:47.356Z,1007.21
2022-08-27T01:06:47.350Z,1007.20
2022-08-27T01:07:47.356Z,1007.23
2022-08-27T01:08:47.356Z,1007.20
2022-08-27T01:09:47.359Z,1007.23
2022-08-27T01:10:47.361Z,1007.22
2022-08-27T01:11:47.364Z,1007.23
2022-08-27T01:12:53.276Z,1007.19
2022-08-27T01:14:00.253Z,1007.19
2022-08-27T01:14:47.367Z,1007.18
2022-08-27T01:15:47.374Z,1007.13
2022-08-27T01:16:47.377Z,1007.11
2022-08-27T01:17:47.371Z,1007.11
2022-08-27T01:18:47.376Z,1007.14
2022-08-27T01:19:47.385Z,1007.10
2022-08-27T01:20:47.379Z,1007.06
2022-08-27T01:21:47.388Z,1007.11
2022-08-27T01:22:47.394Z,1007.15
2022-08-27T01:23:47.391Z,1007.12
2022-08-27T01:24:47.388Z,1007.12
2022-08-27T01:25:47.391Z,1007.17
2022-08-27T01:26:47.389Z,1007.14
2022-08-27T01:27:47.398Z,1007.10
2022-08-27T01:28:47.396Z,1007.10
2022-08-27T01:29:47.399Z,1007.13
2022-08-27T01:30:47.399Z,1007.10
2022-08-27T01:31:47.475Z,1007.12
2022-08-27T01:32:47.402Z,1007.07
2022-08-27T01:33:47.405Z,1007.09
2022-08-27T01:34:47.406Z,1007.09
2022-08-27T01:35:47.421Z,1007.10
2022-08-27T01:36:47.410Z,1007.10
2022-08-27T01:37:47.658Z,1007.06
2022-08-27T01:38:47.417Z,1007.05
2022-08-27T01:39:47.422Z,1007.08
2022-08-27T01:40:47.420Z,1007.06
2022-08-27T01:41:47.422Z,1007.07
2022-08-27T01:42:47.429Z,1007.06
2022-08-27T01:43:47.427Z,1007.04
2022-08-27T01:44:47.430Z,1007.06
2022-08-27T01:45:47.440Z,1007.07
2022-08-27T01:46:47.500Z,1007.08
2022-08-27T01:47:47.447Z,1007.07
2022-08-27T01:48:47.437Z,1007.07
2022-08-27T01:49:47.443Z,1007.10
2022-08-27T01:50:47.442Z,1007.05
2022-08-27T01:51:47.445Z,1007.08
2022-08-27T01:52:47.450Z,1007.08
2022-08-27T01:53:47.448Z,1007.07
2022-08-27T01:54:47.450Z,1007.07
2022-08-27T01:55:48.238Z,1007.09
2022-08-27T01:56:47.451Z,1007.09
2022-08-27T01:57:47.454Z,1007.05
2022-08-27T01:58:47.457Z,1007.05
2022-08-27T01:59:47.465Z,1007.08
2022-08-27T02:00:47.571Z,1007.08
2022-08-27T02:01:47.519Z,1007.12
2022-08-27T02:02:47.470Z,1007.07
2022-08-27T02:03:47.470Z,1007.07
2022-08-27T02:04:47.469Z,1007.09
2022-08-27T02:05:47.474Z,1007.04
2022-08-27T02:06:47.475Z,1007.05
2022-08-27T02:07:47.482Z,1007.04
2022-08-27T02:08:47.479Z,1007.08
2022-08-27T02:09:47.482Z,1007.05
2022-08-27T02:10:47.484Z,1007.12
2022-08-27T02:11:47.498Z,1007.08
2022-08-27T02:12:47.497Z,1007.08
2022-08-27T02:13:47.490Z,1007.12
2022-08-27T02:14:47.493Z,1007.10
2022-08-27T02:15:47.570Z,1007.11
2022-08-27T02:16:52.101Z,1007.16
2022-08-27T02:17:47.498Z,1007.15
2022-08-27T02:18:47.505Z,1007.14
2022-08-27T02:19:47.508Z,1007.15
2022-08-27T02:20:47.510Z,1007.17
2022-08-27T02:21:47.507Z,1007.13
2022-08-27T02:22:47.517Z,1007.12
2022-08-27T02:23:47.511Z,1007.11
2022-08-27T02:24:47.516Z,1007.11
2022-08-27T02:25:47.513Z,1007.11
2022-08-27T02:26:47.518Z,1007.13
2022-08-27T02:27:47.521Z,1007.17
2022-08-27T02:28:47.526Z,1007.16
2022-08-27T02:29:47.527Z,1007.19
2022-08-27T02:30:47.529Z,1007.19
2022-08-27T02:31:47.622Z,1007.18
2022-08-27T02:32:47.530Z,1007.19
2022-08-27T02:33:47.533Z,1007.17
2022-08-27T02:34:47.539Z,1007.18
2022-08-27T02:35:47.538Z,1007.18
2022-08-27T02:36:47.536Z,1007.19
2022-08-27T02:37:47.542Z,1007.20
2022-08-27T02:38:47.547Z,1007.21
2022-08-27T02:39:47.546Z,1007.22
2022-08-27T02:40:47.547Z,1007.20
2022-08-27T02:41:47.551Z,1007.20
2022-08-27T02:42:47.552Z,1007.18
2022-08-27T02:43:47.555Z,1007.16
2022-08-27T02:44:47.559Z,1007.19
2022-08-27T02:45:47.561Z,1007.19
2022-08-27T02:46:47.628Z,1007.21
2022-08-27T02:47:47.565Z,1007.18
2022-08-27T02:48:47.571Z,1007.21
2022-08-27T02:49:47.568Z,1007.26
2022-08-27T02:50:47.574Z,1007.24
2022-08-27T02:51:47.580Z,1007.29
2022-08-27T02:52:47.574Z,1007.29
2022-08-27T02:53:47.575Z,1007.28
2022-08-27T02:54:47.581Z,1007.25
2022-08-27T02:55:47.584Z,1007.29
2022-08-27T02:56:47.584Z,1007.28
2022-08-27T02:57:47.587Z,1007.29
2022-08-27T02:58:47.589Z,1007.28
2022-08-27T02:59:47.594Z,1007.31
2022-08-27T03:00:47.591Z,1007.27
2022-08-27T03:01:47.696Z,1007.28
2022-08-27T03:02:47.652Z,1007.26
2022-08-27T03:03:47.606Z,1007.24
2022-08-27T03:04:47.605Z,1007.24
2022-08-27T03:05:47.605Z,1007.21
2022-08-27T03:06:47.603Z,1007.22
2022-08-27T03:07:47.608Z,1007.18
2022-08-27T03:08:52.209Z,1007.19
2022-08-27T03:09:47.612Z,1007.25
2022-08-27T03:10:47.614Z,1007.26
2022-08-27T03:11:47.618Z,1007.30
2022-08-27T03:12:47.624Z,1007.29
2022-08-27T03:13:47.622Z,1007.25
2022-08-27T03:14:47.634Z,1007.29
2022-08-27T03:15:47.665Z,1007.26
2022-08-27T03:16:47.635Z,1007.32
2022-08-27T03:17:47.633Z,1007.29
2022-08-27T03:18:47.631Z,1007.26
2022-08-27T03:19:47.636Z,1007.25
2022-08-27T03:20:48.059Z,1007.26
2022-08-27T03:21:54.324Z,1007.25
2022-08-27T03:22:47.641Z,1007.25
2022-08-27T03:23:47.644Z,1007.24
2022-08-27T03:24:47.646Z,1007.21
2022-08-27T03:25:47.652Z,1007.25
2022-08-27T03:26:52.923Z,1007.24
2022-08-27T03:27:47.653Z,1007.23
2022-08-27T03:28:47.657Z,1007.21
2022-08-27T03:29:47.662Z,1007.23
2022-08-27T03:30:47.660Z,1007.22
2022-08-27T03:31:47.774Z,1007.22
2022-08-27T03:32:47.672Z,1007.19
2022-08-27T03:33:47.668Z,1007.21
2022-08-27T03:34:47.667Z,1007.20
2022-08-27T03:35:51.551Z,1007.19
2022-08-27T03:36:47.678Z,1007.18
2022-08-27T03:37:47.690Z,1007.16
2022-08-27T03:38:47.682Z,1007.15
2022-08-27T03:39:47.685Z,1007.08
2022-08-27T03:40:47.681Z,1007.12
2022-08-27T03:41:54.996Z,1007.09
2022-08-27T03:42:47.697Z,1007.03
2022-08-27T03:43:47.697Z,1007.08
2022-08-27T03:44:47.694Z,1007.08
2022-08-27T03:46:00.954Z,1007.05
2022-08-27T03:46:47.764Z,1007.09
2022-08-27T03:47:47.712Z,1007.10
2022-08-27T03:48:47.700Z,1007.09
2022-08-27T03:49:47.705Z,1007.11
2022-08-27T03:50:47.704Z,1007.09
2022-08-27T03:51:47.710Z,1007.13
2022-08-27T03:52:47.708Z,1007.15
2022-08-27T03:53:47.711Z,1007.13
2022-08-27T03:54:47.720Z,1007.10
2022-08-27T03:55:47.714Z,1007.15
2022-08-27T03:56:47.724Z,1007.14
2022-08-27T03:57:47.725Z,1007.12
2022-08-27T03:58:47.721Z,1007.07
2022-08-27T03:59:47.727Z,1007.10
2022-08-27T04:00:47.731Z,1007.10
2022-08-27T04:01:47.804Z,1007.08
2022-08-27T04:02:47.785Z,1007.13
2022-08-27T04:03:47.740Z,1007.10
2022-08-27T04:04:47.791Z,1007.11
2022-08-27T04:05:47.949Z,1007.12
2022-08-27T04:06:47.742Z,1007.12
2022-08-27T04:07:47.747Z,1007.12
2022-08-27T04:08:47.749Z,1007.12
2022-08-27T04:09:47.751Z,1007.12
2022-08-27T04:10:47.750Z,1007.13
2022-08-27T04:11:47.753Z,1007.08
2022-08-27T04:12:47.753Z,1007.10
2022-08-27T04:13:47.757Z,1007.05
2022-08-27T04:14:47.761Z,1007.07
2022-08-27T04:15:47.799Z,1007.06
2022-08-27T04:16:47.768Z,1007.06
2022-08-27T04:17:47.766Z,1007.09
2022-08-27T04:18:47.771Z,1007.06
2022-08-27T04:19:47.774Z,1007.08
2022-08-27T04:20:47.774Z,1007.07
2022-08-27T04:21:47.777Z,1007.15
2022-08-27T04:22:47.780Z,1007.09
2022-08-27T04:23:47.782Z,1007.10
2022-08-27T04:24:47.783Z,1007.11
2022-08-27T04:25:47.789Z,1007.11
2022-08-27T04:26:47.793Z,1007.09
2022-08-27T04:27:47.795Z,1007.11
2022-08-27T04:28:48.640Z,1007.12
2022-08-27T04:29:47.799Z,1007.13
2022-08-27T04:30:47.846Z,1007.12
2022-08-27T04:31:47.800Z,1007.13
2022-08-27T04:32:47.802Z,1007.14
2022-08-27T04:33:50.910Z,1007.19
2022-08-27T04:34:47.808Z,1007.21
2022-08-27T04:35:47.810Z,1007.20
2022-08-27T04:36:47.810Z,1007.24
2022-08-27T04:37:47.814Z,1007.28
2022-08-27T04:38:47.815Z,1007.23
2022-08-27T04:39:50.317Z,1007.24
2022-08-27T04:40:47.818Z,1007.29
2022-08-27T04:41:47.820Z,1007.27
2022-08-27T04:42:47.826Z,1007.26
2022-08-27T04:43:47.828Z,1007.26
2022-08-27T04:44:47.827Z,1007.29
2022-08-27T04:45:47.830Z,1007.24
2022-08-27T04:46:49.335Z,1007.27
2022-08-27T04:47:47.835Z,1007.24
2022-08-27T04:48:47.839Z,1007.24
2022-08-27T04:49:47.841Z,1007.24
2022-08-27T04:50:47.844Z,1007.21
2022-08-27T04:51:48.203Z,1007.19
2022-08-27T04:52:47.847Z,1007.24
2022-08-27T04:53:47.846Z,1007.25
2022-08-27T04:54:47.851Z,1007.23
2022-08-27T04:55:47.857Z,1007.23
2022-08-27T04:56:47.857Z,1007.22
2022-08-27T04:57:47.860Z,1007.22
2022-08-27T04:58:47.864Z,1007.24
2022-08-27T04:59:47.867Z,1007.23
2022-08-27T05:00:47.873Z,1007.26
2022-08-27T05:01:47.904Z,1007.25
2022-08-27T05:02:47.871Z,1007.24
2022-08-27T05:03:47.874Z,1007.26
2022-08-27T05:04:47.903Z,1007.32
2022-08-27T05:05:47.877Z,1007.34
2022-08-27T05:06:47.880Z,1007.33
2022-08-27T05:07:47.882Z,1007.34
2022-08-27T05:08:47.885Z,1007.29
2022-08-27T05:09:47.889Z,1007.31
2022-08-27T05:10:47.899Z,1007.36
2022-08-27T05:11:47.893Z,1007.34
2022-08-27T05:12:47.895Z,1007.36
2022-08-27T05:13:47.898Z,1007.35
2022-08-27T05:14:47.901Z,1007.37
2022-08-27T05:15:47.998Z,1007.36
2022-08-27T05:16:47.903Z,1007.33
2022-08-27T05:17:47.911Z,1007.40
2022-08-27T05:18:48.645Z,1007.32
2022-08-27T05:19:47.912Z,1007.34
2022-08-27T05:20:47.910Z,1007.30
2022-08-27T05:21:47.915Z,1007.33
2022-08-27T05:22:47.922Z,1007.31
2022-08-27T05:23:47.920Z,1007.33
2022-08-27T05:24:50.448Z,1007.33
2022-08-27T05:25:47.921Z,1007.32
2022-08-27T05:26:47.924Z,1007.31
2022-08-27T05:27:47.932Z,1007.31
2022-08-27T05:28:47.929Z,1007.32
2022-08-27T05:29:47.931Z,1007.32
2022-08-27T05:30:52.521Z,1007.32
2022-08-27T05:31:47.941Z,1007.33
2022-08-27T05:32:47.940Z,1007.36
2022-08-27T05:33:47.938Z,1007.31
2022-08-27T05:34:47.946Z,1007.38
2022-08-27T05:35:47.947Z,1007.34
2022-08-27T05:36:49.125Z,1007.35
2022-08-27T05:37:47.951Z,1007.34
2022-08-27T05:38:47.956Z,1007.39
2022-08-27T05:39:47.954Z,1007.40
2022-08-27T05:40:47.960Z,1007.37
2022-08-27T05:41:47.957Z,1007.36
2022-08-27T05:42:50.216Z,1007.36
2022-08-27T05:43:50.557Z,1007.38
2022-08-27T05:44:47.968Z,1007.35
2022-08-27T05:45:47.970Z,1007.39
2022-08-27T05:46:47.975Z,1007.39
2022-08-27T05:47:47.973Z,1007.40
2022-08-27T05:48:47.980Z,1007.38
2022-08-27T05:49:47.981Z,1007.41
2022-08-27T05:50:47.980Z,1007.43
2022-08-27T05:51:47.989Z,1007.43
2022-08-27T05:52:47.990Z,1007.44
2022-08-27T05:53:47.991Z,1007.44
2022-08-27T05:54:47.992Z,1007.47
2022-08-27T05:55:47.997Z,1007.42
2022-08-27T05:56:47.997Z,1007.43
2022-08-27T05:57:48.000Z,1007.46
2022-08-27T05:58:48.005Z,1007.46
2022-08-27T05:59:48.004Z,1007.45
2022-08-27T06:00:48.006Z,1007.48
2022-08-27T06:01:48.017Z,1007.47
2022-08-27T06:02:48.090Z,1007.50
2022-08-27T06:03:48.024Z,1007.49
2022-08-27T06:04:48.066Z,1007.53
2022-08-27T06:05:48.022Z,1007.49
2022-08-27T06:06:48.023Z,1007.52
2022-08-27T06:07:48.025Z,1007.49
2022-08-27T06:08:48.025Z,1007.50
2022-08-27T06:09:48.025Z,1007.54
2022-08-27T06:10:48.039Z,1007.52
2022-08-27T06:11:48.032Z,1007.54
2022-08-27T06:12:48.038Z,1007.55
2022-08-27T06:13:48.039Z,1007.57
2022-08-27T06:14:48.042Z,1007.53
2022-08-27T06:15:48.118Z,1007.54
2022-08-27T06:16:48.046Z,1007.53
2022-08-27T06:17:48.047Z,1007.57
2022-08-27T06:18:48.055Z,1007.53
2022-08-27T06:19:48.052Z,1007.59
2022-08-27T06:20:48.059Z,1007.60
2022-08-27T06:22:00.934Z,1007.67
2022-08-27T06:22:48.061Z,1007.62
2022-08-27T06:23:48.063Z,1007.64
2022-08-27T06:24:48.064Z,1007.67
2022-08-27T06:25:48.070Z,1007.69
2022-08-27T06:26:48.069Z,1007.70
2022-08-27T06:27:48.079Z,1007.68
2022-08-27T06:28:48.072Z,1007.70
2022-08-27T06:29:48.077Z,1007.71
2022-08-27T06:30:48.134Z,1007.74
2022-08-27T06:31:48.084Z,1007.72
2022-08-27T06:32:48.101Z,1007.74
2022-08-27T06:33:48.087Z,1007.71
2022-08-27T06:34:48.093Z,1007.74
2022-08-27T06:35:48.095Z,1007.69
2022-08-27T06:36:48.100Z,1007.73
2022-08-27T06:37:48.096Z,1007.70
2022-08-27T06:38:49.502Z,1007.74
2022-08-27T06:39:48.101Z,1007.69
2022-08-27T06:40:48.108Z,1007.68
2022-08-27T06:41:48.107Z,1007.71
2022-08-27T06:42:48.115Z,1007.67
2022-08-27T06:43:48.114Z,1007.66
2022-08-27T06:44:48.118Z,1007.68
2022-08-27T06:45:48.120Z,1007.65
2022-08-27T06:46:48.119Z,1007.62
2022-08-27T06:47:48.123Z,1007.67
2022-08-27T06:48:48.129Z,1007.69
2022-08-27T06:49:48.128Z,1007.67
2022-08-27T06:50:48.126Z,1007.73
2022-08-27T06:51:48.135Z,1007.72
2022-08-27T06:52:48.136Z,1007.74
2022-08-27T06:53:48.143Z,1007.76
2022-08-27T06:54:48.145Z,1007.74
2022-08-27T06:55:48.144Z,1007.77
2022-08-27T06:56:48.150Z,1007.82
2022-08-27T06:57:48.153Z,1007.82
2022-08-27T06:58:48.157Z,1007.80
2022-08-27T06:59:48.159Z,1007.81
2022-08-27T07:00:49.045Z,1007.81
2022-08-27T07:01:48.250Z,1007.85
2022-08-27T07:02:48.233Z,1007.86
2022-08-27T07:03:49.274Z,1007.86
2022-08-27T07:04:48.171Z,1007.83
2022-08-27T07:05:48.168Z,1007.86
2022-08-27T07:06:48.174Z,1007.82
2022-08-27T07:07:48.908Z,1007.82
2022-08-27T07:08:53.237Z,1007.82
2022-08-27T07:09:48.191Z,1007.83
2022-08-27T07:10:48.186Z,1007.81
2022-08-27T07:11:48.191Z,1007.83
2022-08-27T07:12:48.193Z,1007.80
2022-08-27T07:13:48.197Z,1007.84
2022-08-27T07:14:48.198Z,1007.85
2022-08-27T07:15:48.293Z,1007.84
2022-08-27T07:16:48.351Z,1007.84
2022-08-27T07:17:48.202Z,1007.82
2022-08-27T07:18:48.207Z,1007.85
2022-08-27T07:19:48.212Z,1007.84
2022-08-27T07:20:48.215Z,1007.84
2022-08-27T07:21:48.215Z,1007.85
2022-08-27T07:22:48.217Z,1007.83
2022-08-27T07:23:48.223Z,1007.87
2022-08-27T07:24:48.223Z,1007.83
2022-08-27T07:25:48.226Z,1007.88
2022-08-27T07:26:48.230Z,1007.82
2022-08-27T07:27:48.228Z,1007.77
2022-08-27T07:28:48.236Z,1007.84
2022-08-27T07:29:48.237Z,1007.82
2022-08-27T07:30:48.323Z,1007.81
2022-08-27T07:31:48.244Z,1007.84
2022-08-27T07:32:48.241Z,1007.84
2022-08-27T07:33:51.374Z,1007.83
2022-08-27T07:34:48.250Z,1007.83
2022-08-27T07:35:48.250Z,1007.83
2022-08-27T07:36:48.250Z,1007.87
2022-08-27T07:37:48.263Z,1007.88
2022-08-27T07:38:55.560Z,1007.83
2022-08-27T07:39:48.264Z,1007.86
2022-08-27T07:40:48.263Z,1007.82
2022-08-27T07:41:48.270Z,1007.87
2022-08-27T07:42:48.277Z,1007.87
2022-08-27T07:43:48.281Z,1007.88
2022-08-27T07:44:48.276Z,1007.84
2022-08-27T07:45:48.355Z,1007.86
2022-08-27T07:46:49.467Z,1007.85
2022-08-27T07:47:48.290Z,1007.84
2022-08-27T07:48:48.287Z,1007.88
2022-08-27T07:49:48.683Z,1007.86
2022-08-27T07:50:48.296Z,1007.89
2022-08-27T07:51:48.299Z,1007.90
2022-08-27T07:52:48.299Z,1007.90
2022-08-27T07:53:48.303Z,1007.92
2022-08-27T07:54:48.307Z,1007.88
2022-08-27T07:55:48.308Z,1007.90
2022-08-27T07:56:55.821Z,1007.88
2022-08-27T07:57:48.316Z,1007.88
2022-08-27T07:58:48.318Z,1007.85
2022-08-27T07:59:48.320Z,1007.90
2022-08-27T08:00:48.323Z,1007.88
2022-08-27T08:01:48.388Z,1007.91
2022-08-27T08:02:48.346Z,1007.90
2022-08-27T08:03:48.331Z,1007.92
2022-08-27T08:04:48.332Z,1007.95
2022-08-27T08:05:48.345Z,1007.96
2022-08-27T08:06:48.340Z,1007.95
2022-08-27T08:07:48.346Z,1007.94
2022-08-27T08:08:48.349Z,1007.96
2022-08-27T08:09:48.348Z,1007.98
2022-08-27T08:10:48.352Z,1007.98
2022-08-27T08:11:48.354Z,1007.97
2022-08-27T08:12:48.356Z,1008.01
2022-08-27T08:13:48.362Z,1007.98
2022-08-27T08:14:48.365Z,1008.03
2022-08-27T08:15:48.372Z,1008.04
2022-08-27T08:16:48.443Z,1008.02
2022-08-27T08:17:48.378Z,1008.06
2022-08-27T08:18:48.373Z,1008.05
2022-08-27T08:20:08.596Z,1008.05
2022-08-27T08:20:57.956Z,1008.06
2022-08-27T08:21:48.379Z,1008.02
2022-08-27T08:22:48.386Z,1008.04
2022-08-27T08:23:48.388Z,1008.01
2022-08-27T08:24:48.394Z,1007.99
2022-08-27T08:25:48.399Z,1007.97
2022-08-27T08:26:48.396Z,1007.94
2022-08-27T08:27:48.406Z,1007.99
2022-08-27T08:28:48.401Z,1007.96
2022-08-27T08:29:48.405Z,1007.95
2022-08-27T08:30:48.453Z,1007.89
2022-08-27T08:31:49.991Z,1007.88
2022-08-27T08:32:48.418Z,1007.89
2022-08-27T08:33:48.412Z,1007.85
2022-08-27T08:34:48.429Z,1007.87
2022-08-27T08:35:48.428Z,1007.88
2022-08-27T08:36:54.028Z,1007.82
2022-08-27T08:37:48.435Z,1007.80
2022-08-27T08:38:48.436Z,1007.80
2022-08-27T08:39:48.441Z,1007.76
2022-08-27T08:40:48.442Z,1007.73
2022-08-27T08:41:48.444Z,1007.79
2022-08-27T08:42:50.579Z,1007.84
2022-08-27T08:43:48.449Z,1007.78
2022-08-27T08:44:48.459Z,1007.74
2022-08-27T08:45:48.546Z,1007.76
2022-08-27T08:46:48.458Z,1007.75
2022-08-27T08:47:48.463Z,1007.78
2022-08-27T08:48:48.471Z,1007.70
2022-08-27T08:49:48.466Z,1007.73
2022-08-27T08:50:48.475Z,1007.76
2022-08-27T08:51:48.476Z,1007.80
2022-08-27T08:52:48.482Z,1007.71
2022-08-27T08:53:48.482Z,1007.77
2022-08-27T08:54:48.490Z,1007.70
2022-08-27T08:55:48.494Z,1007.62
2022-08-27T08:56:52.986Z,1007.64
2022-08-27T08:57:48.502Z,1007.59
2022-08-27T08:58:48.501Z,1007.58
2022-08-27T08:59:48.504Z,1007.57
2022-08-27T09:00:48.507Z,1007.55
2022-08-27T09:01:48.558Z,1007.57
2022-08-27T09:02:48.517Z,1007.60
2022-08-27T09:03:48.578Z,1007.55
2022-08-27T09:04:48.513Z,1007.48
2022-08-27T09:05:48.527Z,1007.45
2022-08-27T09:06:48.536Z,1007.42
2022-08-27T09:07:48.536Z,1007.39
2022-08-27T09:08:48.906Z,1007.41
2022-08-27T09:09:48.544Z,1007.41
2022-08-27T09:10:48.540Z,1007.41
2022-08-27T09:11:48.544Z,1007.44
2022-08-27T09:12:48.548Z,1007.48
2022-08-27T09:13:48.560Z,1007.49
2022-08-27T09:14:48.559Z,1007.50
2022-08-27T09:15:48.562Z,1007.54
2022-08-27T09:16:48.617Z,1007.62
2022-08-27T09:17:48.567Z,1007.61
2022-08-27T09:18:52.462Z,1007.64
2022-08-27T09:19:48.575Z,1007.68
2022-08-27T09:20:48.584Z,1007.74
2022-08-27T09:21:48.587Z,1007.82
2022-08-27T09:22:48.585Z,1007.90
2022-08-27T09:23:48.590Z,1007.80
2022-08-27T09:24:48.595Z,1007.71
2022-08-27T09:25:48.604Z,1007.67
2022-08-27T09:26:48.601Z,1007.71
2022-08-27T09:27:48.612Z,1007.68
2022-08-27T09:28:48.607Z,1007.77
2022-08-27T09:29:48.612Z,1007.82
2022-08-27T09:30:48.791Z,1007.80
2022-08-27T09:31:48.620Z,1007.85
2022-08-27T09:32:48.624Z,1007.87
2022-08-27T09:33:56.172Z,1007.86
2022-08-27T09:34:48.632Z,1007.96
2022-08-27T09:35:48.638Z,1008.05
2022-08-27T09:36:48.636Z,1007.98
2022-08-27T09:37:48.647Z,1007.99
2022-08-27T09:38:48.891Z,1007.96
2022-08-27T09:39:48.655Z,1008.00
2022-08-27T09:40:48.715Z,1008.06
2022-08-27T09:41:48.658Z,1008.05
2022-08-27T09:42:49.753Z,1008.06
2022-08-27T09:43:48.669Z,1008.08
2022-08-27T09:44:53.452Z,1008.11
2022-08-27T09:45:48.731Z,1008.07
2022-08-27T09:46:48.678Z,1008.09
2022-08-27T09:47:48.684Z,1008.08
2022-08-27T09:48:48.685Z,1008.10
2022-08-27T09:49:48.689Z,1008.12
2022-08-27T09:50:48.698Z,1008.15
2022-08-27T09:51:48.700Z,1008.19
2022-08-27T09:52:48.704Z,1008.25
2022-08-27T09:53:48.703Z,1008.30
2022-08-27T09:54:48.706Z,1008.28
2022-08-27T09:55:48.714Z,1008.32
2022-08-27T09:56:48.719Z,1008.38
2022-08-27T09:57:48.721Z,1008.41
2022-08-27T09:58:48.723Z,1008.41
2022-08-27T09:59:48.730Z,1008.45
2022-08-27T10:00:48.771Z,1008.43
2022-08-27T10:01:48.740Z,1008.47
2022-08-27T10:02:48.746Z,1008.54
2022-08-27T10:03:48.811Z,1008.47
2022-08-27T10:04:50.535Z,1008.46
2022-08-27T10:05:48.755Z,1008.43
2022-08-27T10:06:48.758Z,1008.40
2022-08-27T10:07:48.760Z,1008.44
2022-08-27T10:08:48.764Z,1008.49
2022-08-27T10:09:48.767Z,1008.44
2022-08-27T10:10:48.774Z,1008.42
2022-08-27T10:11:48.781Z,1008.40
2022-08-27T10:12:48.784Z,1008.40
2022-08-27T10:13:48.788Z,1008.45
2022-08-27T10:14:48.794Z,1008.46
2022-08-27T10:15:49.619Z,1008.42
2022-08-27T10:16:48.823Z,1008.43
2022-08-27T10:17:48.804Z,1008.39
2022-08-27T10:18:48.809Z,1008.42
2022-08-27T10:19:49.148Z,1008.41
2022-08-27T10:20:48.815Z,1008.43
2022-08-27T10:21:48.827Z,1008.41
2022-08-27T10:22:48.825Z,1008.39
2022-08-27T10:23:48.825Z,1008.39
2022-08-27T10:24:48.829Z,1008.42
2022-08-27T10:25:48.833Z,1008.50
2022-08-27T10:26:48.839Z,1008.52
2022-08-27T10:27:48.843Z,1008.50
2022-08-27T10:28:48.849Z,1008.49
2022-08-27T10:29:48.858Z,1008.46
2022-08-27T10:30:48.856Z,1008.41
2022-08-27T10:31:48.912Z,1008.39
2022-08-27T10:32:52.127Z,1008.42
2022-08-27T10:33:48.870Z,1008.41
2022-08-27T10:34:48.875Z,1008.44
2022-08-27T10:35:54.621Z,1008.41
2022-08-27T10:36:48.885Z,1008.43
2022-08-27T10:37:48.890Z,1008.41
2022-08-27T10:38:48.893Z,1008.41
2022-08-27T10:39:48.900Z,1008.43
2022-08-27T10:40:48.899Z,1008.42
2022-08-27T10:41:48.903Z,1008.42
2022-08-27T10:42:48.908Z,1008.40
2022-08-27T10:43:48.914Z,1008.41
2022-08-27T10:44:48.913Z,1008.37
2022-08-27T10:45:48.939Z,1008.42
2022-08-27T10:46:50.637Z,1008.37
2022-08-27T10:47:48.931Z,1008.38
2022-08-27T10:48:48.936Z,1008.39
2022-08-27T10:49:48.942Z,1008.35
2022-08-27T10:50:48.942Z,1008.40
2022-08-27T10:51:48.946Z,1008.38
2022-08-27T10:52:51.729Z,1008.41
2022-08-27T10:53:48.956Z,1008.40
2022-08-27T10:54:48.960Z,1008.42
2022-08-27T10:55:48.967Z,1008.40
2022-08-27T10:56:48.972Z,1008.43
2022-08-27T10:57:57.672Z,1008.42
2022-08-27T10:58:48.977Z,1008.40
2022-08-27T10:59:48.978Z,1008.43
2022-08-27T11:00:49.040Z,1008.44
2022-08-27T11:01:49.020Z,1008.50
2022-08-27T11:02:48.991Z,1008.46
2022-08-27T11:03:48.998Z,1008.45
2022-08-27T11:04:48.996Z,1008.43
2022-08-27T11:05:49.002Z,1008.42
2022-08-27T11:06:49.011Z,1008.39
2022-08-27T11:07:49.009Z,1008.38
2022-08-27T11:08:49.016Z,1008.42
2022-08-27T11:09:51.596Z,1008.41
2022-08-27T11:10:49.028Z,1008.42
2022-08-27T11:12:13.384Z,1008.45
2022-08-27T11:12:49.034Z,1008.44
2022-08-27T11:13:49.040Z,1008.51
2022-08-27T11:14:49.046Z,1008.48
2022-08-27T11:15:49.045Z,1008.44
2022-08-27T11:16:49.087Z,1008.40
2022-08-27T11:17:49.059Z,1008.42
2022-08-27T11:18:49.059Z,1008.43
2022-08-27T11:19:49.067Z,1008.43
2022-08-27T11:20:49.071Z,1008.41
2022-08-27T11:21:49.077Z,1008.38
2022-08-27T11:22:49.080Z,1008.42
2022-08-27T11:23:49.081Z,1008.32
2022-08-27T11:24:49.087Z,1008.34
2022-08-27T11:25:49.095Z,1008.32
2022-08-27T11:26:49.104Z,1008.36
2022-08-27T11:27:49.112Z,1008.33
2022-08-27T11:28:49.109Z,1008.32
2022-08-27T11:29:49.110Z,1008.35
2022-08-27T11:30:49.134Z,1008.35
2022-08-27T11:31:49.162Z,1008.35
2022-08-27T11:32:49.125Z,1008.40
2022-08-27T11:33:49.131Z,1008.32
2022-08-27T11:34:49.136Z,1008.34
2022-08-27T11:35:49.139Z,1008.29
2022-08-27T11:36:54.173Z,1008.33
2022-08-27T11:37:49.151Z,1008.39
2022-08-27T11:38:49.150Z,1008.33
2022-08-27T11:39:51.829Z,1008.27
2022-08-27T11:40:49.164Z,1008.26
2022-08-27T11:41:49.169Z,1008.28
2022-08-27T11:42:49.172Z,1008.29
2022-08-27T11:43:49.182Z,1008.41
2022-08-27T11:44:49.184Z,1008.37
2022-08-27T11:45:49.185Z,1008.37
2022-08-27T11:46:49.258Z,1008.35
2022-08-27T11:47:49.195Z,1008.38
2022-08-27T11:48:49.199Z,1008.39
2022-08-27T11:49:49.210Z,1008.43
2022-08-27T11:50:49.210Z,1008.39
2022-08-27T11:51:49.222Z,1008.39
2022-08-27T11:52:49.223Z,1008.41
2022-08-27T11:53:52.059Z,1008.44
2022-08-27T11:54:49.230Z,1008.39
2022-08-27T11:55:49.235Z,1008.36
2022-08-27T11:56:49.238Z,1008.37
2022-08-27T11:57:49.253Z,1008.36
2022-08-27T11:58:53.214Z,1008.35
2022-08-27T11:59:49.259Z,1008.35
2022-08-27T12:00:49.259Z,1008.36
2022-08-27T12:01:49.267Z,1008.34
2022-08-27T12:02:49.271Z,1008.37
2022-08-27T12:03:49.453Z,1008.35
2022-08-27T12:04:49.606Z,1008.38
2022-08-27T12:05:49.288Z,1008.38